^^
Station Historical Data
Daily Summary for April 6, 2017 Units:  English    Metric   Both
« Previous Day
Next Day »
Daily Weekly Monthly Yearly Custom
  High: Low: Average:
Temperature: 50.5 °F 37.9 °F 42.5 °F
Dew Point: 49.7 °F 36.3 °F 40.9 °F
Humidity: 98% 89% 94%
Wind Speed: 9.0mph 0.0mph 2.5mph
Wind Gust: 23.0mph - -
Wind- - SSE
Pressure: 30.01 in 29.21 in -
Precipitation: 1.03 in    
Historical Graphs
 
 
Tabular Data for April 6, 2017
Time Temperature Dew Point Pressure Wind Wind Speed Wind Gust Humidity Rainfall Rate (Hourly) Conditions
00:00 43.9 °F 40.9 °F 30.01 in NNE 1.0 mph 6.0 mph 89% 0.00 in CLR
00:15 43.5 °F 40.7 °F 30.01 in North 1.0 mph 7.0 mph 90% 0.00 in BKN
00:30 42.9 °F 40.5 °F 30.00 in NW 1.0 mph 5.0 mph 91% 0.00 in BKN
00:45 42.6 °F 40.2 °F 29.99 in ENE 1.0 mph 9.0 mph 91% 0.00 in BKN
01:00 42.5 °F 40.1 °F 30.00 in North 1.0 mph 5.0 mph 91% 0.00 in BKN
02:15 42.0 °F 39.6 °F 29.98 in WNW 1.0 mph 5.0 mph 91% 0.00 in BKN
02:30 41.9 °F 39.5 °F 29.97 in Calm   6.0 mph 91% 0.00 in BKN
02:45 41.9 °F 39.5 °F 29.97 in Calm   7.0 mph 91% 0.00 in BKN
03:00 41.9 °F 39.5 °F 29.96 in ENE 1.0 mph 5.0 mph 91% 0.00 in BKN
03:15 41.9 °F 39.5 °F 29.96 in ESE 2.0 mph 5.0 mph 91% 0.00 in BKN
03:30 41.8 °F 39.4 °F 29.95 in NW 1.0 mph 6.0 mph 91% 0.00 in BKN
03:45 41.7 °F 39.2 °F 29.94 in ENE 3.0 mph 8.0 mph 91% 0.00 in BKN
04:00 41.6 °F 39.2 °F 29.93 in North 1.0 mph 8.0 mph 91% 0.00 in BKN
04:15 41.5 °F 39.1 °F 29.94 in North 1.0 mph 7.0 mph 91% 0.00 in BKN
04:30 41.3 °F 39.2 °F 29.94 in NNE 1.0 mph 7.0 mph 92% 0.00 in BKN
04:45 41.1 °F 39.0 °F 29.94 in NE 1.0 mph 8.0 mph 92% 0.00 in BKN
05:00 40.9 °F 38.8 °F 29.93 in Calm   8.0 mph 92% 0.00 in BKN
05:15 40.5 °F 38.4 °F 29.92 in ENE 2.0 mph 6.0 mph 92% 0.01 in RA
05:30 40.0 °F 37.9 °F 29.91 in NNE 3.0 mph 13.0 mph 92% 0.00 in BKN
05:45 39.5 °F 37.6 °F 29.89 in WNW 1.0 mph 8.0 mph 93% 0.00 in BKN
06:00 39.1 °F 37.2 °F 29.89 in ENE 2.0 mph 15.0 mph 93% 0.00 in BKN
06:15 38.8 °F 36.9 °F 29.86 in NE 2.0 mph 12.0 mph 93% 0.00 in -RA
06:30 38.7 °F 36.9 °F 29.86 in NE 2.0 mph 10.0 mph 93% 0.01 in -RA
06:45 38.4 °F 36.8 °F 29.86 in NW 1.0 mph 9.0 mph 94% 0.02 in -RA
07:00 38.3 °F 36.7 °F 29.85 in East 1.0 mph 9.0 mph 94% 0.00 in -RA
07:15 38.2 °F 36.7 °F 29.85 in Calm   9.0 mph 94% 0.00 in -RA
07:30 38.1 °F 36.5 °F 29.83 in East 3.0 mph 12.0 mph 94% 0.00 in -RA
07:45 37.9 °F 36.3 °F 29.81 in ENE 1.0 mph 13.0 mph 94% 0.01 in -RA
08:00 37.9 °F 36.3 °F 29.79 in ENE 3.0 mph 20.0 mph 94% 0.00 in -RA
08:15 38.0 °F 36.4 °F 29.78 in ESE 5.0 mph 13.0 mph 94% 0.00 in -RA
08:30 38.0 °F 36.4 °F 29.78 in NNW 2.0 mph 9.0 mph 94% 0.01 in -RA
08:45 38.1 °F 36.5 °F 29.77 in NNE 5.0 mph 9.0 mph 94% 0.01 in -RA
09:00 38.1 °F 36.5 °F 29.76 in North 2.0 mph 9.0 mph 94% 0.00 in -RA
09:15 38.2 °F 36.9 °F 29.75 in NNW 3.0 mph 12.0 mph 95% 0.01 in -RA
09:30 38.3 °F 37.0 °F 29.74 in ENE 1.0 mph 14.0 mph 95% 0.00 in -RA
09:45 38.3 °F 36.7 °F 29.74 in ENE 5.0 mph 20.0 mph 94% 0.00 in -RA
10:00 38.3 °F 36.7 °F 29.73 in North 2.0 mph 18.0 mph 94% 0.01 in -RA
10:15 38.4 °F 37.1 °F 29.72 in North 3.0 mph 16.0 mph 95% 0.00 in -RA
10:30 38.5 °F 37.2 °F 29.71 in NNW 2.0 mph 13.0 mph 95% 0.01 in -RA
10:45 38.7 °F 37.4 °F 29.70 in East 2.0 mph 14.0 mph 95% 0.00 in -RA
11:00 38.9 °F 37.6 °F 29.69 in ENE 3.0 mph 20.0 mph 95% 0.01 in -RA
11:15 39.0 °F 37.7 °F 29.68 in ENE 7.0 mph 23.0 mph 95% 0.01 in -RA
11:30 39.1 °F 37.8 °F 29.67 in East 3.0 mph 12.0 mph 95% 0.01 in -RA
11:45 39.1 °F 37.8 °F 29.67 in NE 3.0 mph 12.0 mph 95% 0.01 in -RA
12:00 39.0 °F 37.7 °F 29.65 in ENE 6.0 mph 13.0 mph 95% 0.01 in -RA
12:15 39.1 °F 37.8 °F 29.64 in ENE 6.0 mph 14.0 mph 95% 0.01 in -RA
12:30 39.1 °F 37.8 °F 29.61 in East 3.0 mph 15.0 mph 95% 0.00 in -RA
12:45 39.2 °F 37.9 °F 29.60 in ENE 1.0 mph 12.0 mph 95% 0.01 in -RA
13:00 39.5 °F 38.2 °F 29.58 in NE 2.0 mph 13.0 mph 95% 0.01 in -RA
13:15 39.5 °F 38.2 °F 29.56 in NE 5.0 mph 14.0 mph 95% 0.01 in -RA
13:30 39.7 °F 38.4 °F 29.55 in NNE 2.0 mph 12.0 mph 95% 0.01 in -RA
13:45 40.0 °F 39.0 °F 29.53 in ENE 7.0 mph 17.0 mph 96% 0.00 in -RA
14:00 40.2 °F 39.2 °F 29.51 in NNE 3.0 mph 12.0 mph 96% 0.00 in -RA
14:15 40.7 °F 39.6 °F 29.49 in SE 2.0 mph 13.0 mph 96% 0.01 in -RA
14:30 41.1 °F 40.0 °F 29.47 in NE 2.0 mph 12.0 mph 96% 0.00 in -RA
14:45 41.6 °F 40.5 °F 29.44 in East 1.0 mph 14.0 mph 96% 0.00 in -RA
15:00 42.3 °F 41.2 °F 29.42 in East 1.0 mph 9.0 mph 96% 0.00 in -RA
15:15 42.2 °F 41.2 °F 29.40 in ENE 3.0 mph 16.0 mph 96% 0.01 in -RA
15:30 42.7 °F 41.6 °F 29.36 in ENE 2.0 mph 7.0 mph 96% 0.00 in -RA
15:45 42.8 °F 41.7 °F 29.35 in SSW 3.0 mph 10.0 mph 96% 0.00 in -RA
16:00 43.0 °F 41.9 °F 29.32 in ENE 2.0 mph 13.0 mph 96% 0.12 in -RA
16:15 43.3 °F 42.5 °F 29.32 in West 1.0 mph 7.0 mph 97% 0.08 in RA
16:30 43.7 °F 42.9 °F 29.31 in WSW 2.0 mph 6.0 mph 97% 0.06 in RA
16:45 44.0 °F 43.2 °F 29.28 in SSW 1.0 mph 6.0 mph 97% 0.06 in RA
17:00 44.4 °F 43.6 °F 29.26 in NNE 1.0 mph 11.0 mph 97% 0.27 in RA
17:15 45.0 °F 44.2 °F 29.26 in West 2.0 mph 8.0 mph 97% 0.12 in +RA
17:30 45.6 °F 44.8 °F 29.27 in Calm   5.0 mph 97% 0.09 in +RA
17:45 45.3 °F 44.5 °F 29.28 in SE 1.0 mph 7.0 mph 97% 0.01 in +RA
18:00 44.9 °F 44.1 °F 29.25 in Calm   12.0 mph 97% 0.00 in +RA
18:15 45.5 °F 44.7 °F 29.23 in Calm   3.0 mph 97% 0.00 in -RA
18:30 46.8 °F 46.0 °F 29.22 in Calm   2.0 mph 97% 0.00 in -RA
18:45 48.5 °F 48.0 °F 29.21 in Calm   2.0 mph 98% 0.00 in -RA
19:00 48.9 °F 48.1 °F 29.22 in Calm   1.0 mph 97% 0.00 in -RA
19:15 49.1 °F 48.3 °F 29.21 in Calm   5.0 mph 97% 0.00 in BKN
19:30 49.3 °F 48.5 °F 29.21 in South 2.0 mph 5.0 mph 97% 0.00 in BKN
19:45 49.4 °F 48.6 °F 29.23 in SW 2.0 mph 8.0 mph 97% 0.00 in BKN
20:00 49.9 °F 49.1 °F 29.22 in South 5.0 mph 14.0 mph 97% 0.00 in BKN
20:15 50.1 °F 49.3 °F 29.22 in SSW 5.0 mph 12.0 mph 97% 0.00 in BKN
20:30 50.5 °F 49.7 °F 29.22 in South 5.0 mph 17.0 mph 97% 0.00 in BKN
20:45 50.2 °F 48.8 °F 29.24 in South 5.0 mph 15.0 mph 95% 0.00 in BKN
21:00 49.1 °F 47.2 °F 29.25 in SSW 9.0 mph 20.0 mph 93% 0.00 in BKN
21:15 48.7 °F 45.9 °F 29.26 in South 8.0 mph 20.0 mph 90% 0.00 in BKN
21:30 48.3 °F 45.8 °F 29.27 in SW 6.0 mph 20.0 mph 91% 0.00 in BKN
22:00 47.7 °F 44.9 °F 29.28 in SSW 7.0 mph 17.0 mph 90% 0.00 in BKN
22:15 47.5 °F 45.0 °F 29.28 in South 5.0 mph 12.0 mph 91% 0.00 in SCT
22:30 47.6 °F 44.8 °F 29.28 in SW 3.0 mph 17.0 mph 90% 0.00 in SCT
22:45 47.7 °F 44.9 °F 29.28 in South 6.0 mph 14.0 mph 90% 0.00 in SCT
23:00 47.6 °F 44.5 °F 29.29 in SSW 8.0 mph 15.0 mph 89% 0.00 in SCT
23:15 47.7 °F 44.6 °F 29.29 in SW 2.0 mph 10.0 mph 89% 0.00 in BKN
23:30 47.7 °F 44.6 °F 29.29 in SSW 6.0 mph 15.0 mph 89% 0.00 in BKN
23:45 47.5 °F 44.7 °F 29.29 in SSW 3.0 mph 13.0 mph 90% 0.00 in BKN
TarryTown NY Weather
Compliments of Weather Underground - 1.5 mb